Time;durP1;ratioP1;P1;durP2;ratioP2;P2;SDS_P1;SDS_P2;PMS_P1;PMS_P2;Temp;Humidity;BMP_temperature;BMP_pressure;BME280_temperature;BME280_humidity;BME280_pressure;Samples;Min_cycle;Max_cycle;Signal;HPM_P1;HPM_P2
2023/12/10 00:02:05;;;;;;;;;0.00;0.00;;;;;12.63;100.00;100787.66;5057699;28;46667;-82
2023/12/10 00:04:31;;;;;;;;;0.00;0.00;;;;;12.53;100.00;100810.63;5057041;28;63240;-82
2023/12/10 00:06:56;;;;;;;;;0.00;0.00;;;;;12.50;100.00;100802.91;5057207;28;53933;-83
2023/12/10 00:09:22;;;;;;;;;0.00;0.00;;;;;12.54;100.00;100790.59;5038868;28;46562;-82
2023/12/10 00:11:47;;;;;;;;;0.00;0.00;;;;;12.51;100.00;100811.59;5042940;28;45404;-82
2023/12/10 00:14:12;;;;;;;;;0.00;0.00;;;;;12.51;100.00;100804.59;5057933;28;46076;-81
2023/12/10 00:16:38;;;;;;;;;0.00;0.00;;;;;12.43;100.00;100824.06;5040209;28;45511;-82
2023/12/10 00:19:03;;;;;;;;;0.00;0.00;;;;;12.44;100.00;100831.81;5042891;28;45278;-82
2023/12/10 00:21:28;;;;;;;;;0.00;0.00;;;;;12.42;100.00;100840.63;5057413;28;52540;-82
2023/12/10 00:23:54;;;;;;;;;0.00;0.00;;;;;12.36;100.00;100833.88;5071328;28;62895;-82
2023/12/10 00:26:19;;;;;;;;;0.00;0.00;;;;;12.36;100.00;100829.50;5059549;28;46980;-82
2023/12/10 00:28:44;;;;;;;;;0.00;0.00;;;;;12.41;100.00;100824.13;5063456;28;50249;-82
2023/12/10 00:31:10;;;;;;;;;3.00;3.00;;;;;12.33;100.00;100842.66;5056306;28;52177;-83
2023/12/10 00:33:35;;;;;;;;;0.00;0.00;;;;;12.39;100.00;100829.41;5039058;28;45977;-82
2023/12/10 00:36:01;;;;;;;;;0.00;0.00;;;;;12.54;100.00;100835.84;5039434;28;45484;-82
2023/12/10 00:38:26;;;;;;;;;0.00;0.00;;;;;12.58;100.00;100833.97;5057349;28;45278;-82
2023/12/10 00:40:51;;;;;;;;;0.00;0.00;;;;;12.46;100.00;100837.88;5056292;28;54844;-82
2023/12/10 00:43:17;;;;;;;;;0.00;0.00;;;;;12.58;100.00;100847.03;5038305;28;45454;-83
2023/12/10 00:45:42;;;;;;;;;0.00;0.00;;;;;12.46;100.00;100853.53;5056591;28;67922;-82
2023/12/10 00:48:08;;;;;;;;;0.00;0.00;;;;;12.52;100.00;100839.41;5057227;28;45388;-82
2023/12/10 00:50:34;;;;;;;;;0.00;0.00;;;;;12.42;100.00;100848.47;5057313;28;45357;-81
2023/12/10 00:53:02;;;;;;;;;0.00;0.00;;;;;12.43;100.00;100858.84;5057557;28;46181;-82
2023/12/10 00:55:27;;;;;;;;;0.00;0.00;;;;;12.47;100.00;100852.63;5039360;28;45359;-82
2023/12/10 00:57:53;;;;;;;;;0.00;0.00;;;;;12.42;100.00;100856.28;5056622;28;54817;-82
2023/12/10 01:00:18;;;;;;;;;0.00;0.00;;;;;12.43;100.00;100863.25;5056821;28;50495;-82
2023/12/10 01:02:43;;;;;;;;;0.00;0.00;;;;;12.41;100.00;100863.28;5056671;28;46168;-82
2023/12/10 01:05:09;;;;;;;;;0.00;0.00;;;;;12.34;100.00;100877.44;5056228;28;45404;-82
2023/12/10 01:07:34;;;;;;;;;0.00;0.00;;;;;12.29;100.00;100888.03;5057145;28;45364;-82
2023/12/10 01:10:00;;;;;;;;;0.00;0.00;;;;;12.37;100.00;100875.59;5057147;28;45398;-82
2023/12/10 01:12:26;;;;;;;;;0.00;0.00;;;;;12.25;100.00;100883.81;5056680;28;46059;-81
2023/12/10 01:14:51;;;;;;;;;0.00;0.00;;;;;12.27;100.00;100891.59;5038693;28;45443;-81
2023/12/10 01:17:17;;;;;;;;;0.00;0.00;;;;;12.37;100.00;100886.03;5056118;28;54656;-82
2023/12/10 01:19:43;;;;;;;;;0.00;0.00;;;;;12.31;100.00;100901.03;5056784;28;45428;-82
2023/12/10 01:22:08;;;;;;;;;0.00;0.00;;;;;12.37;100.00;100891.25;5055971;28;65905;-81
2023/12/10 01:24:33;;;;;;;;;0.00;0.00;;;;;12.26;100.00;100913.38;5072515;28;45320;-82
2023/12/10 01:26:59;;;;;;;;;0.00;0.00;;;;;12.21;100.00;100913.53;5056528;28;45388;-81
2023/12/10 01:29:25;;;;;;;;;0.00;0.00;;;;;12.17;100.00;100917.16;5056273;28;45479;-82
2023/12/10 01:31:51;;;;;;;;;0.00;0.00;;;;;12.22;100.00;100917.88;5056487;28;45343;-82
2023/12/10 01:34:16;;;;;;;;;0.00;0.00;;;;;12.31;100.00;100925.41;5056724;28;45338;-81
2023/12/10 01:36:41;;;;;;;;;0.00;0.00;;;;;12.34;100.00;100921.81;5056388;28;51418;-82
2023/12/10 01:39:07;;;;;;;;;0.00;0.00;;;;;12.36;100.00;100946.13;5056576;28;45614;-82
2023/12/10 01:41:32;;;;;;;;;0.00;0.00;;;;;12.36;100.00;100935.66;5055899;28;59264;-82
2023/12/10 01:43:57;;;;;;;;;0.00;0.00;;;;;12.33;100.00;100949.69;5055469;28;50552;-80
2023/12/10 01:46:23;;;;;;;;;0.00;0.00;;;;;12.27;100.00;100939.44;5038601;28;45805;-82
2023/12/10 01:48:50;;;;;;;;;0.00;0.00;;;;;12.33;100.00;100941.84;5056289;28;45418;-81
2023/12/10 01:51:16;;;;;;;;;0.00;0.00;;;;;12.29;100.00;100952.44;5037797;28;46738;-82
2023/12/10 01:53:41;;;;;;;;;0.00;0.00;;;;;12.24;100.00;100960.44;5054971;28;45399;-82
2023/12/10 01:56:08;;;;;;;;;0.00;0.00;;;;;12.40;100.00;100947.72;5037086;28;60891;-82
2023/12/10 01:58:34;;;;;;;;;0.00;0.00;;;;;12.42;100.00;100951.13;5038082;28;45379;-81
2023/12/10 02:01:00;;;;;;;;;0.00;0.00;;;;;12.42;100.00;100947.66;5038135;28;46086;-82
2023/12/10 02:03:26;;;;;;;;;0.00;0.00;;;;;12.42;100.00;100953.72;5056342;28;45400;-82
2023/12/10 02:05:51;;;;;;;;;0.00;0.00;;;;;12.56;100.00;100938.47;5037864;28;53684;-82
2023/12/10 02:08:17;;;;;;;;;0.00;0.00;;;;;12.42;100.00;100955.50;5055729;28;45327;-82
2023/12/10 02:10:42;;;;;;;;;0.00;0.00;;;;;12.56;100.00;100946.28;5055626;28;45383;-82
2023/12/10 02:13:08;;;;;;;;;0.67;0.00;;;;;12.51;100.00;100950.81;5055115;28;60471;-82
2023/12/10 02:15:33;;;;;;;;;0.00;0.00;;;;;12.42;100.00;100935.47;5055553;28;45791;-82
2023/12/10 02:17:58;;;;;;;;;0.00;0.00;;;;;12.38;100.00;100967.78;5055698;28;48409;-82
2023/12/10 02:20:24;;;;;;;;;0.00;0.00;;;;;12.41;100.00;100975.53;5054895;28;69159;-82
2023/12/10 02:22:57;;;;;;;;;1.00;0.00;;;;;12.57;100.00;100965.41;5061047;28;54852;-79
2023/12/10 02:25:34;;;;;;;;;0.00;0.00;;;;;12.56;100.00;100984.63;5042232;28;45308;-79
2023/12/10 02:28:00;;;;;;;;;0.00;0.00;;;;;12.31;100.00;100980.22;5034973;28;45492;-79
2023/12/10 02:30:25;;;;;;;;;0.00;0.00;;;;;12.34;100.00;100963.59;5055363;28;45428;-80
2023/12/10 02:32:51;;;;;;;;;0.00;0.00;;;;;12.15;100.00;100977.22;5037724;28;45370;-80
2023/12/10 02:35:16;;;;;;;;;0.00;0.00;;;;;12.25;100.00;100976.94;5055883;28;45495;-80
2023/12/10 02:37:41;;;;;;;;;0.00;0.00;;;;;12.32;100.00;100986.28;5055571;28;50668;-79
2023/12/10 02:40:08;;;;;;;;;0.00;0.00;;;;;12.24;100.00;100975.22;5037439;28;46063;-82
2023/12/10 02:42:33;;;;;;;;;0.00;0.00;;;;;12.24;100.00;100981.31;5037344;28;45286;-83
2023/12/10 02:44:58;;;;;;;;;0.00;0.00;;;;;12.27;100.00;100970.75;5055052;28;54408;-82
2023/12/10 02:47:24;;;;;;;;;0.00;0.00;;;;;12.20;100.00;100977.94;5037905;28;46017;-81
2023/12/10 02:49:49;;;;;;;;;0.00;0.00;;;;;12.19;100.00;100976.22;5036692;28;59185;-82
2023/12/10 02:52:15;;;;;;;;;0.67;0.67;;;;;12.10;100.00;100988.72;5054883;28;56235;-82
2023/12/10 02:54:40;;;;;;;;;0.00;0.00;;;;;12.25;100.00;100969.09;5054707;28;57741;-82
2023/12/10 02:57:05;;;;;;;;;0.00;0.00;;;;;12.23;100.00;100991.78;5054694;28;48280;-83
2023/12/10 02:59:31;;;;;;;;;0.00;0.00;;;;;12.33;100.00;100977.53;5054683;28;67546;-82
2023/12/10 03:01:56;;;;;;;;;0.00;0.00;;;;;12.25;100.00;100988.22;5055018;28;49743;-82
2023/12/10 03:04:21;;;;;;;;;0.00;0.00;;;;;12.30;100.00;101001.13;5054345;28;63180;-82
2023/12/10 03:06:47;;;;;;;;;0.00;0.00;;;;;12.18;100.00;101042.38;5054816;28;49259;-80
2023/12/10 03:09:12;;;;;;;;;0.00;0.00;;;;;12.30;100.00;101019.41;5054560;28;46253;-80
2023/12/10 03:11:38;;;;;;;;;2.50;0.75;;;;;12.23;100.00;101031.78;5055169;28;45506;-81
2023/12/10 03:14:04;;;;;;;;;0.00;0.00;;;;;12.23;100.00;101026.56;5055481;28;45305;-80
2023/12/10 03:16:29;;;;;;;;;0.00;0.00;;;;;12.35;100.00;101020.09;5055063;28;45506;-80
2023/12/10 03:18:55;;;;;;;;;0.00;0.00;;;;;12.29;100.00;101022.91;5055011;28;46024;-80
2023/12/10 03:21:20;;;;;;;;;0.00;0.00;;;;;12.46;100.00;101001.47;5055002;28;51889;-80
2023/12/10 03:23:45;;;;;;;;;0.00;0.00;;;;;12.44;100.00;101027.63;5053880;28;60621;-80
2023/12/10 03:26:11;;;;;;;;;0.00;0.00;;;;;12.45;100.00;101018.06;5054453;28;50175;-80
2023/12/10 03:28:36;;;;;;;;;0.00;0.00;;;;;12.41;100.00;101032.97;5037815;28;65902;-80
2023/12/10 03:31:01;;;;;;;;;0.00;0.00;;;;;12.56;100.00;101037.69;5057830;28;59943;-80
2023/12/10 03:33:27;;;;;;;;;0.00;0.00;;;;;12.51;100.00;101039.59;5058384;28;45841;-79
2023/12/10 03:35:52;;;;;;;;;0.00;0.00;;;;;12.63;100.00;101022.69;5058563;28;45285;-80
2023/12/10 03:38:17;;;;;;;;;0.00;0.00;;;;;12.62;100.00;101041.00;5057846;28;58651;-80
2023/12/10 03:40:43;;;;;;;;;0.00;0.00;;;;;12.49;100.00;101054.47;5057163;28;63222;-80
2023/12/10 03:43:08;;;;;;;;;0.00;0.00;;;;;12.56;100.00;101040.31;5058247;28;45270;-80
2023/12/10 03:45:33;;;;;;;;;0.00;0.00;;;;;12.55;100.00;101064.69;5057258;28;65691;-81
2023/12/10 03:47:58;;;;;;;;;0.00;0.00;;;;;12.50;100.00;101084.03;5057572;28;52627;-81
2023/12/10 03:50:24;;;;;;;;;0.00;0.00;;;;;12.58;100.00;101071.59;5058174;28;45392;-81
2023/12/10 03:52:49;;;;;;;;;0.00;0.00;;;;;12.58;100.00;101076.81;5057853;28;49443;-81
2023/12/10 03:55:17;;;;;;;;;0.00;0.00;;;;;12.45;100.00;101093.78;5057728;28;45520;-81
2023/12/10 03:57:42;;;;;;;;;0.00;0.00;;;;;12.46;100.00;101098.09;5058063;28;45336;-80
2023/12/10 04:00:08;;;;;;;;;0.00;0.00;;;;;12.53;100.00;101065.66;5058076;28;45329;-80
2023/12/10 04:02:33;;;;;;;;;0.00;0.00;;;;;12.47;100.00;101087.59;5058048;28;45448;-80
2023/12/10 04:04:58;;;;;;;;;0.00;0.00;;;;;12.46;100.00;101080.69;5057721;28;52660;-80
2023/12/10 04:07:24;;;;;;;;;0.00;0.00;;;;;12.45;100.00;101078.13;5039617;28;45408;-80
2023/12/10 04:09:49;;;;;;;;;0.00;0.00;;;;;12.46;100.00;101074.59;5056577;28;45733;-80
2023/12/10 04:12:14;;;;;;;;;0.00;0.00;;;;;12.38;100.00;101093.94;5057807;28;52293;-81
2023/12/10 04:14:40;;;;;;;;;0.00;0.00;;;;;12.46;100.00;101067.63;5057784;28;49303;-80
2023/12/10 04:17:05;;;;;;;;;0.00;0.00;;;;;12.35;100.00;101085.34;5057610;28;49621;-81
2023/12/10 04:19:30;;;;;;;;;0.00;0.00;;;;;12.35;100.00;101080.13;5057285;28;58017;-81
2023/12/10 04:21:56;;;;;;;;;0.00;0.00;;;;;12.42;100.00;101083.41;5057070;28;53840;-81
2023/12/10 04:24:21;;;;;;;;;0.00;0.00;;;;;12.41;100.00;101064.31;5056263;28;52605;-81
2023/12/10 04:26:46;;;;;;;;;0.00;0.00;;;;;12.40;100.00;101060.81;5056903;28;62526;-81
2023/12/10 04:29:12;;;;;;;;;0.00;0.00;;;;;12.34;100.00;101062.78;5056750;28;64767;-80
2023/12/10 04:31:37;;;;;;;;;0.00;0.00;;;;;12.33;100.00;101066.28;5057101;28;57205;-81
2023/12/10 04:34:02;;;;;;;;;0.00;0.00;;;;;12.23;100.00;101093.56;5057630;28;45372;-81
2023/12/10 04:36:28;;;;;;;;;0.00;0.00;;;;;12.19;100.00;101082.38;5057073;28;58316;-81
2023/12/10 04:38:53;;;;;;;;;0.00;0.00;;;;;12.15;100.00;101099.03;5056395;28;55363;-80
2023/12/10 04:41:19;;;;;;;;;0.00;0.00;;;;;12.17;100.00;101092.00;5056027;28;59669;-81
2023/12/10 04:43:44;;;;;;;;;0.00;0.00;;;;;12.24;100.00;101084.81;5056659;28;45379;-81
2023/12/10 04:46:09;;;;;;;;;0.00;0.00;;;;;12.27;100.00;101076.91;5057375;28;46239;-81
2023/12/10 04:48:35;;;;;;;;;0.00;0.00;;;;;12.31;100.00;101055.91;5057341;28;45416;-81
2023/12/10 04:51:00;;;;;;;;;0.00;0.00;;;;;12.23;100.00;101072.69;5057507;28;45412;-81
2023/12/10 04:53:26;;;;;;;;;0.00;0.00;;;;;12.18;100.00;101081.53;5056786;28;45467;-81
2023/12/10 04:55:51;;;;;;;;;0.00;0.00;;;;;12.24;100.00;101069.16;5057124;28;45399;-81
2023/12/10 04:58:16;;;;;;;;;0.00;0.00;;;;;12.24;100.00;101087.44;5039395;28;45538;-81
2023/12/10 05:00:43;;;;;;;;;0.00;0.00;;;;;12.27;100.00;101082.97;5057282;28;45435;-81
2023/12/10 05:03:08;;;;;;;;;0.00;0.00;;;;;12.27;100.00;101087.34;5057525;28;45427;-81
2023/12/10 05:05:33;;;;;;;;;0.00;0.00;;;;;12.27;100.00;101088.19;5056158;28;65762;-82
2023/12/10 05:07:59;;;;;;;;;0.00;0.00;;;;;12.34;100.00;101076.69;5056447;28;45358;-81
2023/12/10 05:10:24;;;;;;;;;0.00;0.00;;;;;12.36;100.00;101074.88;5057100;28;45352;-81
2023/12/10 05:12:49;;;;;;;;;0.00;0.00;;;;;12.37;100.00;101081.81;5056630;28;52373;-81
2023/12/10 05:15:15;;;;;;;;;0.00;0.00;;;;;12.46;100.00;101085.03;5055878;28;71215;-81
2023/12/10 05:17:41;;;;;;;;;0.00;0.00;;;;;12.50;100.00;101089.25;5038592;28;45415;-81
2023/12/10 05:20:07;;;;;;;;;0.00;0.00;;;;;12.49;100.00;101091.00;5056642;28;45376;-81
2023/12/10 05:22:33;;;;;;;;;0.00;0.00;;;;;12.48;100.00;101085.81;5055351;28;45222;-82
2023/12/10 05:24:58;;;;;;;;;0.00;0.00;;;;;12.43;100.00;101099.03;5038871;28;46077;-81
2023/12/10 05:27:23;;;;;;;;;0.00;0.00;;;;;12.50;100.00;101090.13;5056731;28;45359;-81
2023/12/10 05:29:49;;;;;;;;;0.00;0.00;;;;;12.43;100.00;101101.66;5038423;28;54360;-81
2023/12/10 05:32:14;;;;;;;;;0.00;0.00;;;;;12.43;100.00;101101.66;5056885;28;45371;-81
2023/12/10 05:34:40;;;;;;;;;0.00;0.00;;;;;12.32;100.00;101109.81;5056467;28;45419;-81
2023/12/10 05:37:05;;;;;;;;;0.00;0.00;;;;;12.43;100.00;101104.25;5056405;28;45477;-81
2023/12/10 05:39:31;;;;;;;;;0.00;0.00;;;;;12.49;100.00;101105.81;5056619;28;45336;-81
2023/12/10 05:41:56;;;;;;;;;0.00;0.00;;;;;12.44;100.00;101124.22;5056283;28;47910;-81
2023/12/10 05:44:21;;;;;;;;;0.00;0.00;;;;;12.52;100.00;101118.81;5056350;28;47782;-81
2023/12/10 05:46:47;;;;;;;;;0.00;0.00;;;;;12.54;100.00;101123.06;5056094;28;61554;-81
2023/12/10 05:49:12;;;;;;;;;0.00;0.00;;;;;12.51;100.00;101133.59;5056295;28;45296;-82
2023/12/10 05:51:37;;;;;;;;;0.00;0.00;;;;;12.51;100.00;101123.16;5055355;28;57579;-81
2023/12/10 05:54:03;;;;;;;;;0.00;0.00;;;;;12.52;100.00;101150.13;5055776;28;62339;-81
2023/12/10 05:56:28;;;;;;;;;0.00;0.00;;;;;12.47;100.00;101137.19;5056360;28;45791;-81
2023/12/10 05:58:54;;;;;;;;;0.00;0.00;;;;;12.47;100.00;101144.19;5056403;28;45365;-80
2023/12/10 06:01:19;;;;;;;;;0.00;0.00;;;;;12.57;100.00;101150.81;5056217;28;45473;-81
2023/12/10 06:03:44;;;;;;;;;0.00;0.00;;;;;12.58;100.00;101153.41;5055747;28;45403;-81
2023/12/10 06:06:10;;;;;;;;;0.00;0.00;;;;;12.59;100.00;101155.13;5055238;28;63538;-81
2023/12/10 06:08:35;;;;;;;;;0.00;0.00;;;;;12.59;100.00;101149.91;5055309;28;62806;-81
2023/12/10 06:11:01;;;;;;;;;0.00;0.00;;;;;12.59;100.00;101154.25;5055584;28;63064;-81
2023/12/10 06:13:27;;;;;;;;;0.00;0.00;;;;;12.63;100.00;101148.03;5055893;28;46281;-81
2023/12/10 06:15:54;;;;;;;;;0.00;0.00;;;;;12.61;100.00;101159.44;5037921;28;45452;-81
2023/12/10 06:18:20;;;;;;;;;0.00;0.00;;;;;12.49;100.00;101158.91;5055669;28;45403;-81
2023/12/10 06:20:45;;;;;;;;;0.00;0.00;;;;;12.54;100.00;101162.22;5055289;28;45971;-81
2023/12/10 06:23:10;;;;;;;;;0.00;0.00;;;;;12.42;100.00;101149.53;5055276;28;59562;-81
2023/12/10 06:25:36;;;;;;;;;0.00;0.00;;;;;12.39;100.00;101149.66;5037154;28;66619;-82
2023/12/10 06:28:02;;;;;;;;;0.00;0.00;;;;;12.43;100.00;101140.81;5055260;28;63875;-81
2023/12/10 06:30:27;;;;;;;;;0.00;0.00;;;;;12.33;100.00;101160.25;5055860;28;45309;-81
2023/12/10 06:32:53;;;;;;;;;0.00;0.00;;;;;12.35;100.00;101155.84;5055559;28;56617;-82
2023/12/10 06:35:18;;;;;;;;;0.00;0.00;;;;;12.42;100.00;101138.25;5055294;28;45459;-81
2023/12/10 06:37:44;;;;;;;;;0.00;0.00;;;;;12.44;100.00;101144.28;5055993;28;45381;-81
2023/12/10 06:40:10;;;;;;;;;0.00;0.00;;;;;12.52;100.00;101150.97;5056110;28;45340;-82
2023/12/10 06:42:35;;;;;;;;;0.00;0.00;;;;;12.57;100.00;101150.81;5055535;28;45322;-81
2023/12/10 06:45:03;;;;;;;;;0.00;0.00;;;;;12.49;100.00;101134.56;5055606;28;45301;-81
2023/12/10 06:47:28;;;;;;;;;0.00;0.00;;;;;12.55;100.00;101123.91;5055850;28;45392;-81
2023/12/10 06:49:55;;;;;;;;;0.00;0.00;;;;;12.50;100.00;101139.72;5055412;28;45422;-81
2023/12/10 06:52:20;;;;;;;;;0.00;0.00;;;;;12.54;100.00;101143.94;5055594;28;46487;-82
2023/12/10 06:54:45;;;;;;;;;0.00;0.00;;;;;12.52;100.00;101131.84;5055085;28;58387;-81
2023/12/10 06:57:10;;;;;;;;;0.00;0.00;;;;;12.38;100.00;101142.69;5055136;28;49878;-80
2023/12/10 06:59:36;;;;;;;;;0.00;0.00;;;;;12.39;100.00;101149.66;5037294;28;50093;-81
2023/12/10 07:02:01;;;;;;;;;0.00;0.00;;;;;12.47;100.00;101131.97;5055426;28;45434;-81
2023/12/10 07:04:27;;;;;;;;;0.00;0.00;;;;;12.47;100.00;101146.81;5057690;28;45388;-81
2023/12/10 07:06:52;;;;;;;;;0.00;0.00;;;;;12.47;100.00;101144.19;5040856;28;45440;-81
2023/12/10 07:09:17;;;;;;;;;0.00;0.00;;;;;12.47;100.00;101146.81;5058890;28;45411;-81
2023/12/10 07:11:43;;;;;;;;;0.00;0.00;;;;;12.46;100.00;101148.56;5058469;28;56056;-80
2023/12/10 07:14:08;;;;;;;;;0.00;0.00;;;;;12.34;100.00;101143.69;5058908;28;45383;-81
2023/12/10 07:16:33;;;;;;;;;1.00;1.00;;;;;12.38;100.00;101146.16;5058631;28;47515;-80
2023/12/10 07:18:59;;;;;;;;;0.00;0.00;;;;;12.49;100.00;101153.69;5058822;28;45392;-82
2023/12/10 07:21:24;;;;;;;;;0.00;0.00;;;;;12.49;100.00;101155.44;5058596;28;46111;-81
2023/12/10 07:23:50;;;;;;;;;0.00;0.00;;;;;12.51;100.00;101161.47;5072392;28;53060;-81
2023/12/10 07:26:21;;;;;;;;;0.00;0.00;;;;;12.42;100.00;101153.91;5079249;28;45518;-81
2023/12/10 07:28:47;;;;;;;;;0.00;0.00;;;;;12.37;100.00;101154.06;5079017;28;45422;-81
2023/12/10 07:31:12;;;;;;;;;0.00;0.00;;;;;12.40;100.00;101172.22;5060711;28;64972;-80
2023/12/10 07:33:37;;;;;;;;;0.00;0.00;;;;;12.36;100.00;101178.44;5057696;28;55947;-81
2023/12/10 07:36:03;;;;;;;;;0.00;0.00;;;;;12.37;100.00;101173.19;5057182;28;46602;-80
2023/12/10 07:38:28;;;;;;;;;0.00;0.00;;;;;12.36;100.00;101168.84;5058728;28;45383;-82
2023/12/10 07:40:54;;;;;;;;;0.00;0.00;;;;;12.37;100.00;101161.91;5057952;28;45971;-82
2023/12/10 07:43:19;;;;;;;;;0.00;0.00;;;;;12.35;100.00;101172.38;5058403;28;45364;-81
2023/12/10 07:45:45;;;;;;;;;0.00;0.00;;;;;12.28;100.00;101183.03;5057578;28;45538;-82
2023/12/10 07:48:10;;;;;;;;;0.00;0.00;;;;;12.35;100.00;101182.81;5057398;28;45456;-82
2023/12/10 07:50:35;;;;;;;;;0.00;0.00;;;;;12.43;100.00;101181.75;5039142;28;49127;-83
2023/12/10 07:53:01;;;;;;;;;0.00;0.00;;;;;12.44;100.00;101168.63;5056852;28;57878;-83
2023/12/10 07:55:31;;;;;;;;;0.00;0.00;;;;;12.47;100.00;101162.47;5058437;28;45773;-86
2023/12/10 07:57:57;;;;;;;;;0.00;0.00;;;;;12.48;100.00;101174.59;5043093;28;45476;-84
2023/12/10 08:00:22;;;;;;;;;0.00;0.00;;;;;12.52;100.00;101165.81;5059601;28;57743;-84
2023/12/10 08:02:47;;;;;;;;;0.00;0.00;;;;;12.51;100.00;101172.75;5031365;28;58790;-84
2023/12/10 08:05:13;;;;;;;;;0.00;0.00;;;;;12.52;100.00;101163.19;5046538;28;60063;-84
2023/12/10 08:07:38;;;;;;;;;0.00;0.00;;;;;12.51;100.00;101149.25;5051428;28;45652;-86
2023/12/10 08:10:06;;;;;;;;;0.00;0.00;;;;;12.53;100.00;101154.44;5049095;28;46337;-87
2023/12/10 08:12:32;;;;;;;;;1.00;1.00;;;;;12.51;100.00;101148.41;5056852;28;45375;-85
2023/12/10 08:14:57;;;;;;;;;0.00;0.00;;;;;12.50;100.00;101152.78;5050236;28;45404;-87
2023/12/10 08:17:23;;;;;;;;;0.00;0.00;;;;;12.54;100.00;101135.28;5057081;28;45420;-88
2023/12/10 08:19:48;;;;;;;;;0.00;0.00;;;;;12.57;100.00;101138.66;5020048;28;55080;-84
2023/12/10 08:22:13;;;;;;;;;0.00;0.00;;;;;12.61;100.00;101142.03;5048025;28;45320;-87
2023/12/10 08:24:43;;;;;;;;;0.50;0.00;;;;;12.59;100.00;101154.25;5040586;28;45836;-91
2023/12/10 08:27:28;;;;;;;;;0.00;0.00;;;;;12.63;100.00;101163.72;5040937;28;45456;-88
2023/12/10 08:29:56;;;;;;;;;0.00;0.00;;;;;12.58;100.00;101176.06;5041399;28;45389;-91
2023/12/10 08:32:22;;;;;;;;;0.00;0.00;;;;;12.64;100.00;101149.75;5039508;28;45772;-88
2023/12/10 08:34:50;;;;;;;;;0.00;0.00;;;;;12.66;100.00;101154.91;5045378;28;45218;-87
2023/12/10 08:37:17;;;;;;;;;6.00;4.00;;;;;12.58;100.00;101160.38;5053697;28;45412;-88
2023/12/10 08:39:43;;;;;;;;;0.00;0.00;;;;;12.68;100.00;101147.88;5045538;28;46992;-88
2023/12/10 08:42:11;;;;;;;;;0.00;0.00;;;;;12.71;100.00;101153.03;5048563;28;45388;-90
2023/12/10 08:44:39;;;;;;;;;0.00;0.00;;;;;12.68;100.00;101161.78;5023810;28;45197;-90
2023/12/10 08:47:04;;;;;;;;;0.00;0.00;;;;;12.65;100.00;101155.81;5021506;28;45255;-87
2023/12/10 08:49:30;;;;;;;;;0.00;0.00;;;;;12.64;100.00;101154.13;5055226;28;59098;-87
2023/12/10 08:51:57;;;;;;;;;0.00;0.00;;;;;12.68;100.00;101134.81;5057264;28;45372;-86
2023/12/10 08:54:23;;;;;;;;;0.00;0.00;;;;;12.71;100.00;101146.03;5014090;28;45434;-89
2023/12/10 08:56:56;;;;;;;;;0.00;0.00;;;;;12.71;100.00;101142.59;5047989;28;45498;-86
2023/12/10 08:59:21;;;;;;;;;0.00;0.00;;;;;12.85;100.00;101126.44;5056721;28;47613;-86
2023/12/10 09:01:49;;;;;;;;;0.00;0.00;;;;;12.82;100.00;101126.56;5039036;28;48467;-87
2023/12/10 09:04:17;;;;;;;;;0.00;0.00;;;;;12.87;100.00;101101.13;5040415;28;45324;-86
2023/12/10 09:06:42;;;;;;;;;0.00;0.00;;;;;12.79;100.00;101111.84;5038341;28;45561;-88
2023/12/10 09:09:08;;;;;;;;;0.00;0.00;;;;;12.83;100.00;101104.75;5057056;28;47400;-81
2023/12/10 09:11:33;;;;;;;;;0.00;0.00;;;;;12.89;100.00;101107.16;5056605;28;45339;-83
2023/12/10 09:13:59;;;;;;;;;0.00;0.00;;;;;12.87;100.00;101117.69;5056537;28;47294;-82
2023/12/10 09:16:25;;;;;;;;;0.00;0.00;;;;;12.86;100.00;101108.13;5056623;28;45302;-84
2023/12/10 09:18:50;;;;;;;;;1.50;0.00;;;;;12.91;100.00;101114.06;5056963;28;45328;-83
2023/12/10 09:21:15;;;;;;;;;0.00;0.00;;;;;12.98;100.00;101104.25;5021587;28;45513;-83
2023/12/10 09:23:43;;;;;;;;;0.00;0.00;;;;;13.03;100.00;101096.25;5038635;28;45367;-82
2023/12/10 09:26:08;;;;;;;;;0.00;0.00;;;;;12.96;100.00;101112.16;5036314;28;45593;-84
2023/12/10 09:28:34;;;;;;;;;0.00;0.00;;;;;13.05;100.00;101074.38;5053753;28;65509;-83
2023/12/10 09:31:01;;;;;;;;;0.00;0.00;;;;;13.10;100.00;101075.09;5038489;28;45412;-83
2023/12/10 09:33:27;;;;;;;;;0.00;0.00;;;;;13.10;100.00;101069.88;5056488;28;45322;-81
2023/12/10 09:35:52;;;;;;;;;0.00;0.00;;;;;13.21;100.00;101089.56;5056522;28;45547;-83
2023/12/10 09:38:18;;;;;;;;;0.00;0.00;;;;;13.24;100.00;101069.41;5055873;28;57627;-83
2023/12/10 09:40:43;;;;;;;;;0.00;0.00;;;;;13.33;100.00;101056.06;5056312;28;51132;-85
2023/12/10 09:43:08;;;;;;;;;0.00;0.00;;;;;13.39;100.00;101022.72;5055031;28;61588;-83
2023/12/10 09:45:34;;;;;;;;;0.00;0.00;;;;;13.48;100.00;101036.34;5018235;28;45373;-81
2023/12/10 09:48:00;;;;;;;;;0.00;0.00;;;;;13.58;100.00;101073.47;5038730;28;46188;-83
2023/12/10 09:50:26;;;;;;;;;0.00;0.00;;;;;13.59;100.00;101056.84;5056433;28;45389;-82
2023/12/10 09:52:53;;;;;;;;;0.00;0.00;;;;;13.62;100.00;101079.44;5037942;28;45430;-82
2023/12/10 09:55:19;;;;;;;;;0.25;0.25;;;;;13.67;100.00;101069.66;5038475;28;45388;-83
2023/12/10 09:57:44;;;;;;;;;0.00;0.00;;;;;13.82;100.00;101063.88;5037396;28;46483;-81
2023/12/10 10:00:10;;;;;;;;;0.00;0.00;;;;;13.83;100.00;101059.47;5055234;28;66493;-83
2023/12/10 10:02:36;;;;;;;;;0.00;0.00;;;;;13.86;100.00;101075.09;5056090;28;45939;-83
2023/12/10 10:05:03;;;;;;;;;0.00;0.00;;;;;13.98;100.00;101053.66;5037863;28;45321;-82
2023/12/10 10:07:29;;;;;;;;;0.00;0.00;;;;;13.96;100.00;101049.41;5056170;28;46060;-82
2023/12/10 10:09:55;;;;;;;;;0.00;0.00;;;;;14.02;100.00;101044.81;5037591;28;45273;-79
2023/12/10 10:12:20;;;;;;;;;0.00;0.00;;;;;14.05;100.00;101056.91;5053730;28;45552;-80
2023/12/10 10:14:56;;;;;;;;;0.00;0.00;;;;;14.03;100.00;101029.94;5044161;28;52865;-82
2023/12/10 10:17:29;;;;;;;;;0.00;0.00;;;;;14.03;100.00;101035.19;5035922;28;45388;-83
2023/12/10 10:19:55;;;;;;;;;0.00;0.00;;;;;13.96;100.00;101037.16;5038955;28;45568;-83
2023/12/10 10:22:23;;;;;;;;;0.00;0.00;;;;;14.00;100.00;101040.53;5055170;28;45606;-83
2023/12/10 10:24:48;;;;;;;;;0.00;0.00;;;;;14.03;100.00;101032.56;5055925;28;45484;-83
2023/12/10 10:27:13;;;;;;;;;0.00;0.00;;;;;14.10;100.00;101018.34;5056061;28;45475;-82
2023/12/10 10:29:40;;;;;;;;;0.00;0.00;;;;;14.06;100.00;101035.91;5040187;28;58111;-82
2023/12/10 10:32:07;;;;;;;;;0.00;0.00;;;;;14.04;100.00;101032.50;5021023;28;45381;-82
2023/12/10 10:34:32;;;;;;;;;0.00;0.00;;;;;14.17;100.00;101017.19;5037806;28;45339;-82
2023/12/10 10:36:58;;;;;;;;;0.00;0.00;;;;;14.18;100.00;101011.00;5038144;28;45306;-83
2023/12/10 10:39:23;;;;;;;;;0.00;0.00;;;;;14.24;100.00;100999.44;5058311;28;45529;-83
2023/12/10 10:41:49;;;;;;;;;0.00;0.00;;;;;14.33;100.00;101006.94;5039512;28;45356;-84
2023/12/10 10:44:15;;;;;;;;;0.00;0.00;;;;;14.40;100.00;100994.44;5039269;28;45475;-83
2023/12/10 10:46:40;;;;;;;;;0.00;0.00;;;;;14.54;100.00;100994.72;5065400;28;45563;-85
2023/12/10 10:49:08;;;;;;;;;0.00;0.00;;;;;14.61;100.00;100977.03;5048695;28;45356;-88
2023/12/10 10:51:34;;;;;;;;;0.00;0.00;;;;;14.67;100.00;100972.38;5045872;28;45462;-81
2023/12/10 10:54:03;;;;;;;;;0.00;0.00;;;;;14.75;100.00;100972.06;5060276;28;45480;-81
2023/12/10 10:56:29;;;;;;;;;0.00;0.00;;;;;14.75;100.00;100972.06;5042129;28;45507;-81
2023/12/10 10:58:54;;;;;;;;;0.00;0.00;;;;;14.90;100.00;100960.91;5038247;28;45442;-80
2023/12/10 11:01:36;;;;;;;;;0.00;0.00;;;;;14.90;100.00;100989.75;5057960;28;61211;-80
2023/12/10 11:04:02;;;;;;;;;0.00;0.00;;;;;15.05;100.00;100951.53;5059114;28;45436;-81
2023/12/10 11:06:28;;;;;;;;;0.00;0.00;;;;;15.06;100.00;100973.34;5058619;28;46371;-81
2023/12/10 11:08:59;;;;;;;;;0.00;0.00;;;;;15.57;100.00;100943.06;5058956;28;45409;-81
2023/12/10 11:11:26;;;;;;;;;0.00;0.00;;;;;15.89;100.00;100930.22;5058912;28;45442;-81